• Join FlightAware (Why Join?)
  • Login
  • US Flag 
02:55PM EST


 

Airport Tracker/Info


-or-


 

Live Flight TrackerFlight Track Log ✈ EJA941 ✈ 07-Oct-2013 ✈ KMDW - KOKC

Flight Track Log - Related Links

Times and Time Zones

All times are in EDT time to prevent confusion due to time zone crossing. See the EJA941 flight status page for this flight to view local times or setup timezone preferences in your user account.

Time Position Orientation Groundspeed Altitude Reporting Facility
EDT Latitude Longitude Course Direction KTS MPH feet Rate Location/Type
12:01AM 41.7283 -87.7181 183° South 185 213 3,500  Level Chicago Center
12:02AM 41.6814 -87.7817 225° Southwest 237 273 6,400 3,120 Climbing Chicago Center
12:03AM 41.6292 -87.8561 227° Southwest 268 308 9,900 2,940 Climbing Chicago Center
12:04AM 41.5706 -87.9400 227° Southwest 301 346 12,400 2,400 Climbing Chicago Center
12:05AM 41.4858 -88.0014 208° Southwest 347 399 14,800 2,400 Climbing Chicago Center
12:06AM 41.3881 -88.0600 204° Southwest 358 412 17,300 1,980 Climbing Chicago Center
12:07AM 41.2925 -88.1131 203° Southwest 363 418 18,900 1,620 Climbing Chicago Center
12:08AM 41.1900 -88.1722 203° Southwest 394 453 20,600 1,500 Climbing Chicago Center
12:09AM 41.0844 -88.2328 203° Southwest 408 470 22,000 1,620 Climbing Chicago Center
12:10AM 40.9731 -88.2950 203° Southwest 434 499 23,900 1,740 Climbing Chicago Center
12:11AM 40.8622 -88.3592 204° Southwest 435 501 25,600 1,680 Climbing Chicago Center
12:12AM 40.7481 -88.4239 203° Southwest 442 509 27,400 1,680 Climbing Chicago Center
12:13AM 40.6319 -88.4900 203° Southwest 452 520 29,000 1,500 Climbing Chicago Center
12:14AM 40.5250 -88.5836 214° Southwest 467 537 30,500 1,980 Climbing Chicago Center
12:15AM 40.4528 -88.7339 238° Southwest 462 532 33,100 2,520 Climbing Chicago Center
12:16AM 40.3836 -88.8731 237° Southwest 455 524 35,700 2,580 Climbing Chicago Center
12:17AM 40.3167 -89.0050 236° Southwest 437 503 38,400 1,860 Climbing Chicago Center
12:18AM 40.2489 -89.1422 237° Southwest 445 512 39,500 780 Climbing Chicago Center
12:19AM 40.1761 -89.2825 236° Southwest 473 544 40,000 240 Climbing Chicago Center
12:20AM 40.1017 -89.4311 237° Southwest 485 558 40,000  Level Chicago Center
12:21AM 40.0264 -89.5781 236° Southwest 486 559 40,000  Level Chicago Center
12:22AM 39.9517 -89.7258 237° Southwest 490 564 40,000  Level Chicago Center
12:23AM 39.8742 -89.8772 236° Southwest 492 566 40,000  Level Kansas City Center
12:24AM 39.7964 -90.0269 236° Southwest 496 571 40,000  Level Kansas City Center
12:25AM 39.7256 -90.1642 236° Southwest 496 571 40,000  Level Kansas City Center
12:26AM 39.6489 -90.3128 236° Southwest 497 572 40,000  Level Kansas City Center
12:27AM 39.5564 -90.4914 236° Southwest 499 574 40,000  Level Kansas City Center
12:28AM 39.4789 -90.6372 235° Southwest 497 572 40,000  Level Kansas City Center
12:29AM 39.4008 -90.7853 236° Southwest 499 574 40,000  Level Kansas City Center
12:30AM 39.3233 -90.9333 236° Southwest 501 577 40,000  Level Kansas City Center
12:31AM 39.2444 -91.0800 235° Southwest 502 578 40,000  Level Kansas City Center
12:32AM 39.1692 -91.2231 236° Southwest 493 567 40,000  Level Kansas City Center
12:33AM 39.0908 -91.3683 235° Southwest 495 570 40,000  Level Kansas City Center
12:34AM 39.0117 -91.5158 235° Southwest 500 575 40,000  Level Kansas City Center
12:35AM 38.9331 -91.6614 235° Southwest 500 575 40,000  Level Kansas City Center
12:36AM 38.8461 -91.8206 235° Southwest 500 575 40,000  Level Kansas City Center
12:37AM 38.7669 -91.9672 235° Southwest 501 577 40,000  Level Kansas City Center
12:38AM 38.6856 -92.1117 234° Southwest 500 575 40,000  Level Kansas City Center
12:39AM 38.6047 -92.2586 235° Southwest 504 580 40,000  Level Kansas City Center
12:40AM 38.5250 -92.4022 235° Southwest 501 577 40,000  Level Kansas City Center
12:41AM 38.4442 -92.5450 234° Southwest 499 574 40,000  Level Kansas City Center
12:42AM 38.3625 -92.6900 234° Southwest 503 579 40,000  Level Kansas City Center
12:43AM 38.2828 -92.8333 235° Southwest 503 579 40,000  Level Kansas City Center
12:44AM 38.2008 -92.9767 234° Southwest 503 579 40,000  Level Kansas City Center
12:45AM 38.1014 -93.1511 234° Southwest 507 583 40,000  Level Kansas City Center
12:46AM 38.0200 -93.2956 234° Southwest 504 580 40,000  Level Kansas City Center
12:47AM 37.9358 -93.4411 234° Southwest 509 586 40,000  Level Kansas City Center
12:48AM 37.8536 -93.5844 234° Southwest 507 583 40,000  Level Kansas City Center
12:49AM 37.7697 -93.7289 234° Southwest 507 583 40,000  Level Kansas City Center
12:50AM 37.6867 -93.8725 234° Southwest 508 585 40,000  Level Kansas City Center
12:51AM 37.6031 -94.0172 234° Southwest 508 585 40,000  Level Kansas City Center
12:52AM 37.5203 -94.1536 233° Southwest 507 583 40,000  Level Kansas City Center
12:53AM 37.4381 -94.2975 234° Southwest 506 582 40,000  Level Kansas City Center
12:54AM 37.3533 -94.4372 233° Southwest 503 579 40,000  Level Kansas City Center
12:55AM 37.2703 -94.5789 234° Southwest 503 579 40,000  Level Kansas City Center
12:56AM 37.1872 -94.7186 233° Southwest 501 577 40,000  Level Kansas City Center
12:57AM 37.1031 -94.8575 233° Southwest 499 574 40,000 -540 Level Kansas City Center
12:58AM 37.0203 -94.9958 233° Southwest 499 574 39,000 -540 Descending Kansas City Center
12:59AM 36.9383 -95.1328 233° Southwest 495 570 39,000  Level Kansas City Center
01:00AM 36.8536 -95.2733 233° Southwest 502 578 39,000  Level Kansas City Center
01:01AM 36.7692 -95.4156 233° Southwest 510 587 39,000  Level Kansas City Center
01:02AM 36.6850 -95.5558 233° Southwest 510 587 39,000  Level Kansas City Center
01:03AM 36.5947 -95.7039 233° Southwest 515 593 39,000 -960 Level Kansas City Center
01:04AM 36.4981 -95.8583 232° Southwest 503 579 37,100 -2,280 Descending Kansas City Center
01:05AM 36.4161 -95.9903 232° Southwest 491 565 34,500 -2,580 Descending Kansas City Center
01:06AM 36.3361 -96.1192 232° Southwest 479 551 32,000 -2,460 Descending Kansas City Center
01:07AM 36.2569 -96.2475 233° Southwest 472 543 29,600 -2,520 Descending Kansas City Center
01:08AM 36.1747 -96.3778 232° Southwest 476 548 27,000 -2,640 Descending Kansas City Center
01:09AM 36.0908 -96.5108 232° Southwest 487 560 24,400 -2,400 Descending Kansas City Center
01:10AM 36.0206 -96.6222 232° Southwest 482 555 22,200 -2,280 Descending Kansas City Center
01:11AM 35.9406 -96.7478 232° Southwest 471 542 19,800 -2,520 Descending Kansas City Center
01:12AM 35.8503 -96.8900 232° Southwest 441 507 17,200 -2,580 Descending Kansas City Center
01:13AM 35.7892 -96.9939 234° Southwest 389 448 14,700 -2,220 Descending Kansas City Center
01:14AM 35.7458 -97.0972 243° Southwest 356 410 12,700 -1,920 Descending Kansas City Center
01:15AM 35.7067 -97.1919 243° Southwest 333 383 10,900 -1,740 Descending Kansas City Center
01:16AM 35.6686 -97.2814 242° Southwest 310 357 9,200 -1,680 Descending Kansas City Center
01:17AM 35.6319 -97.3683 243° Southwest 296 341 7,500 -1,680 Descending Kansas City Center
01:18AM 35.5961 -97.4514 242° Southwest 284 327 5,900 -1,560 Descending Kansas City Center
01:19AM 35.5650 -97.5264 243° Southwest 260 299 4,500 -1,320 Descending Kansas City Center
01:20AM 35.5297 -97.5831 233° Southwest 228 262 3,300 -840 Descending Kansas City Center
01:21AM 35.4875 -97.5894 187° South 167 192 2,900 -540 Descending Kansas City Center
01:22AM 35.4536 -97.5908 182° South 141 162 2,300 -600 Descending Kansas City Center